Time;durP1;ratioP1;P1;durP2;ratioP2;P2;SDS_P1;SDS_P2;PMS_P1;PMS_P2;Temp;Humidity;BMP_temperature;BMP_pressure;BME280_temperature;BME280_humidity;BME280_pressure;Samples;Min_cycle;Max_cycle;Signal;HPM_P1;HPM_P2
2021/07/21 00:01:07;;;;;;;;;;;;;;;;;;5019929;28;1485;-50
2021/07/21 00:03:33;;;;;;;;;;;;;;;;;;5023896;28;1656;-50
2021/07/21 00:05:58;;;;;;;;;;;;;;;;;;5024268;28;1355;-51
2021/07/21 00:08:23;;;;;;;;;;;;;;;;;;5014941;23;2089;-90
2021/07/21 00:10:50;;;;;;;;;;;;;;;;;;4995904;28;1571;-90
2021/07/21 00:13:28;;;;;;;;;;;;;;;;;;4983168;28;1910;-89
2021/07/21 00:20:55;;;;;;;;;;;;;;;;;;5012198;23;1984;-52
2021/07/21 00:23:21;;;;;;;;;;;;;;;;;;5022980;28;1109;-52
2021/07/21 00:25:46;;;;;;;;;;;;;;;;;;5020866;28;1588;-53
2021/07/21 00:28:11;;;;;;;;;;;;;;;;;;5023798;28;1525;-51
2021/07/21 00:30:36;;;;;;;;;;;;;;;;;;5022745;28;1058;-53
2021/07/21 00:33:02;;;;;;;;;;;;;;;;;;5020373;28;1906;-54
2021/07/21 00:35:27;;;;;;;;;;;;;;;;;;5023087;28;1106;-54
2021/07/21 00:37:52;;;;;;;;;;;;;;;;;;5020742;28;1326;-52
2021/07/21 00:40:17;;;;;;;;;;;;;;;;;;5022800;28;1700;-53
2021/07/21 00:42:43;;;;;;;;;;;;;;;;;;5014670;28;1449;-52
2021/07/21 00:45:08;;;;;;;;;;;;;;;;;;5028125;28;1170;-52
2021/07/21 00:47:33;;;;;;;;;;;;;;;;;;5023190;28;1278;-52
2021/07/21 00:49:59;;;;;;;;;;;;;;;;;;5029298;28;1933;-52
2021/07/21 00:52:24;;;;;;;;;;;;;;;;;;5024207;28;1973;-52
2021/07/21 00:54:49;;;;;;;;;;;;;;;;;;5027696;28;1565;-52
2021/07/21 00:57:14;;;;;;;;;;;;;;;;;;5025491;28;1280;-51
2021/07/21 00:59:39;;;;;;;;;;;;;;;;;;5020383;28;1533;-51
2021/07/21 01:02:05;;;;;;;;;;;;;;;;;;5023494;28;1385;-51
2021/07/21 01:04:32;;;;;;;;;;;;;;;;;;5022491;28;1576;-53
2021/07/21 01:06:57;;;;;;;;;;;;;;;;;;5024760;28;1696;-53
2021/07/21 01:09:22;;;;;;;;;;;;;;;;;;5026549;28;1422;-51
2021/07/21 01:11:52;;;;;;;;;;;;;;;;;;5024194;28;1910;-54
2021/07/21 01:14:17;;;;;;;;;;;;;;;;;;5013937;28;1332;-54
2021/07/21 01:16:56;;;;;;;;;;;;;;;;;;5023323;28;1270;-52
2021/07/21 01:19:30;;;;;;;;;;;;;;;;;;5012193;28;1568;-51
2021/07/21 01:22:13;;;;;;;;;;;;;;;;;;5013268;28;1051;-51
2021/07/21 01:24:47;;;;;;;;;;;;;;;;;;5023683;28;1594;-53
2021/07/21 01:27:41;;;;;;;;;;;;;;;;;;5024014;28;1359;-53
2021/07/21 01:30:11;;;;;;;;;;;;;;;;;;5014654;28;1295;-53
2021/07/21 01:32:36;;;;;;;;;;;;;;;;;;5023110;28;1910;-53
2021/07/21 01:35:04;;;;;;;;;;;;;;;;;;5028804;28;1594;-53
2021/07/21 01:37:29;;;;;;;;;;;;;;;;;;5021524;28;1299;-51
2021/07/21 01:39:55;;;;;;;;;;;;;;;;;;5026815;28;1582;-53
2021/07/21 01:42:20;;;;;;;;;;;;;;;;;;5013803;28;1133;-51
2021/07/21 01:44:47;;;;;;;;;;;;;;;;;;5013625;28;1768;-53
2021/07/21 01:47:14;;;;;;;;;;;;;;;;;;5025444;28;1375;-51
2021/07/21 01:49:40;;;;;;;;;;;;;;;;;;5011697;28;1609;-53
2021/07/21 01:52:08;;;;;;;;;;;;;;;;;;5011565;28;1957;-51
2021/07/21 01:54:33;;;;;;;;;;;;;;;;;;5026788;28;1601;-52
2021/07/21 01:56:59;;;;;;;;;;;;;;;;;;5024558;28;1430;-53
2021/07/21 01:59:24;;;;;;;;;;;;;;;;;;5013195;28;1082;-52
2021/07/21 02:01:49;;;;;;;;;;;;;;;;;;5012764;28;1320;-50
2021/07/21 02:04:14;;;;;;;;;;;;;;;;;;5024302;28;1628;-54
2021/07/21 02:06:40;;;;;;;;;;;;;;;;;;5024914;28;1425;-53
2021/07/21 02:09:05;;;;;;;;;;;;;;;;;;5013535;28;1130;-51
2021/07/21 02:11:30;;;;;;;;;;;;;;;;;;5011965;28;1654;-53
2021/07/21 02:13:56;;;;;;;;;;;;;;;;;;5010112;28;1953;-53
2021/07/21 02:16:21;;;;;;;;;;;;;;;;;;5023756;28;1138;-52
2021/07/21 02:18:50;;;;;;;;;;;;;;;;;;5012357;28;1531;-52
2021/07/21 02:21:16;;;;;;;;;;;;;;;;;;5009902;28;1062;-53
2021/07/21 02:23:41;;;;;;;;;;;;;;;;;;5012102;28;1418;-52
2021/07/21 02:26:06;;;;;;;;;;;;;;;;;;5023018;28;1688;-54
2021/07/21 02:28:32;;;;;;;;;;;;;;;;;;5022869;28;1460;-51
2021/07/21 02:30:57;;;;;;;;;;;;;;;;;;5012303;28;1511;-52
2021/07/21 02:33:23;;;;;;;;;;;;;;;;;;5010896;28;1891;-53
2021/07/21 02:35:48;;;;;;;;;;;;;;;;;;5023433;28;1145;-52
2021/07/21 02:38:13;;;;;;;;;;;;;;;;;;5011246;28;1459;-53
2021/07/21 02:40:39;;;;;;;;;;;;;;;;;;5023814;28;1660;-51
2021/07/21 02:43:04;;;;;;;;;;;;;;;;;;5023991;28;1377;-54
2021/07/21 02:45:29;;;;;;;;;;;;;;;;;;5024481;28;1063;-53
2021/07/21 02:47:54;;;;;;;;;;;;;;;;;;5022279;28;1418;-52
2021/07/21 02:50:20;;;;;;;;;;;;;;;;;;5025315;28;1827;-51
2021/07/21 02:53:01;;;;;;;;;;;;;;;;;;5022015;28;1910;-53
2021/07/21 02:55:26;;;;;;;;;;;;;;;;;;5024295;28;1593;-53
2021/07/21 02:58:26;;;;;;;;;;;;;;;;;;5026201;28;1541;-53
2021/07/21 03:00:52;;;;;;;;;;;;;;;;;;4911464;29;1274;-53
2021/07/21 03:03:17;;;;;;;;;;;;;;;;;;4986313;28;1368;-52
2021/07/21 03:05:42;;;;;;;;;;;;;;;;;;5024224;28;1640;-54
2021/07/21 03:08:07;;;;;;;;;;;;;;;;;;5012157;28;1264;-53
2021/07/21 03:10:32;;;;;;;;;;;;;;;;;;5011397;28;1596;-52
2021/07/21 03:13:30;;;;;;;;;;;;;;;;;;5022927;28;1968;-52
2021/07/21 03:15:55;;;;;;;;;;;;;;;;;;4993471;28;1443;-51
2021/07/21 03:18:25;;;;;;;;;;;;;;;;;;5019767;28;1577;-53
2021/07/21 03:20:50;;;;;;;;;;;;;;;;;;5011252;28;1344;-52
2021/07/21 03:23:15;;;;;;;;;;;;;;;;;;5023869;28;1085;-51
2021/07/21 03:25:41;;;;;;;;;;;;;;;;;;5010327;28;1673;-52
2021/07/21 03:28:06;;;;;;;;;;;;;;;;;;5012116;28;1430;-53
2021/07/21 03:30:32;;;;;;;;;;;;;;;;;;5023825;28;1047;-53
2021/07/21 03:32:57;;;;;;;;;;;;;;;;;;5019497;28;1916;-51
2021/07/21 03:35:23;;;;;;;;;;;;;;;;;;5024294;28;1153;-53
2021/07/21 03:37:48;;;;;;;;;;;;;;;;;;5020532;28;1319;-50
2021/07/21 03:40:14;;;;;;;;;;;;;;;;;;5025018;28;1664;-51
2021/07/21 03:42:39;;;;;;;;;;;;;;;;;;5012160;28;1106;-52
2021/07/21 03:45:05;;;;;;;;;;;;;;;;;;5010407;28;1253;-52
2021/07/21 03:47:30;;;;;;;;;;;;;;;;;;5020888;28;1689;-50
2021/07/21 03:49:56;;;;;;;;;;;;;;;;;;5021874;28;1753;-51
2021/07/21 03:52:21;;;;;;;;;;;;;;;;;;5011323;28;1965;-52
2021/07/21 03:54:46;;;;;;;;;;;;;;;;;;5010329;28;1573;-51
2021/07/21 03:57:12;;;;;;;;;;;;;;;;;;5011290;28;1496;-53
2021/07/21 03:59:37;;;;;;;;;;;;;;;;;;5024929;28;1102;-53
2021/07/21 04:02:02;;;;;;;;;;;;;;;;;;5008803;28;1514;-51
2021/07/21 04:04:28;;;;;;;;;;;;;;;;;;5023479;28;1294;-53
2021/07/21 04:06:53;;;;;;;;;;;;;;;;;;5009380;28;1367;-52
2021/07/21 04:09:19;;;;;;;;;;;;;;;;;;5007576;28;1610;-53
2021/07/21 04:11:44;;;;;;;;;;;;;;;;;;5022469;28;1902;-53
2021/07/21 04:14:10;;;;;;;;;;;;;;;;;;5006122;28;1551;-51
2021/07/21 04:16:36;;;;;;;;;;;;;;;;;;5021095;28;1292;-51
2021/07/21 04:19:01;;;;;;;;;;;;;;;;;;5009874;28;1362;-51
2021/07/21 04:21:26;;;;;;;;;;;;;;;;;;5024213;28;1166;-51
2021/07/21 04:23:52;;;;;;;;;;;;;;;;;;5009662;28;1582;-50
2021/07/21 04:26:17;;;;;;;;;;;;;;;;;;5010902;28;1612;-52
2021/07/21 04:28:42;;;;;;;;;;;;;;;;;;5020916;28;1437;-51
2021/07/21 04:31:07;;;;;;;;;;;;;;;;;;5010813;28;1422;-51
2021/07/21 04:33:33;;;;;;;;;;;;;;;;;;5008462;28;1966;-51
2021/07/21 04:35:58;;;;;;;;;;;;;;;;;;5019465;28;1786;-50
2021/07/21 04:38:23;;;;;;;;;;;;;;;;;;5009434;28;1312;-53
2021/07/21 04:40:50;;;;;;;;;;;;;;;;;;5008143;28;1568;-51
2021/07/21 04:43:15;;;;;;;;;;;;;;;;;;5008448;28;1443;-52
2021/07/21 04:45:41;;;;;;;;;;;;;;;;;;5022807;28;1477;-52
2021/07/21 04:48:06;;;;;;;;;;;;;;;;;;5010153;28;1476;-53
2021/07/21 04:50:31;;;;;;;;;;;;;;;;;;5004995;28;1699;-52
2021/07/21 04:52:56;;;;;;;;;;;;;;;;;;5025236;28;1907;-53
2021/07/21 04:55:21;;;;;;;;;;;;;;;;;;5022686;28;1573;-51
2021/07/21 04:57:48;;;;;;;;;;;;;;;;;;5020167;28;1529;-51
2021/07/21 05:00:14;;;;;;;;;;;;;;;;;;5022141;28;1628;-53
2021/07/21 05:02:39;;;;;;;;;;;;;;;;;;5021959;28;1466;-50
2021/07/21 05:05:04;;;;;;;;;;;;;;;;;;5021052;28;1209;-52
2021/07/21 05:07:29;;;;;;;;;;;;;;;;;;5023006;28;1556;-51
2021/07/21 05:09:54;;;;;;;;;;;;;;;;;;5022251;28;1602;-52
2021/07/21 05:12:20;;;;;;;;;;;;;;;;;;5020152;28;1914;-52
2021/07/21 05:14:45;;;;;;;;;;;;;;;;;;5024020;28;1170;-53
2021/07/21 05:17:10;;;;;;;;;;;;;;;;;;5021297;28;1363;-51
2021/07/21 05:19:35;;;;;;;;;;;;;;;;;;5022440;28;1569;-51
2021/07/21 05:22:00;;;;;;;;;;;;;;;;;;5020890;28;1331;-53
2021/07/21 05:24:25;;;;;;;;;;;;;;;;;;5020021;28;1570;-51
2021/07/21 05:26:51;;;;;;;;;;;;;;;;;;5019598;28;1405;-53
2021/07/21 05:29:16;;;;;;;;;;;;;;;;;;5026569;28;1209;-52
2021/07/21 05:31:41;;;;;;;;;;;;;;;;;;5023776;28;1117;-52
2021/07/21 05:34:06;;;;;;;;;;;;;;;;;;5026612;28;1969;-52
2021/07/21 05:36:35;;;;;;;;;;;;;;;;;;5024692;28;1288;-51
2021/07/21 05:39:02;;;;;;;;;;;;;;;;;;5025583;28;1458;-52
2021/07/21 05:41:27;;;;;;;;;;;;;;;;;;5023990;28;1617;-50
2021/07/21 05:43:52;;;;;;;;;;;;;;;;;;5024778;28;1484;-52
2021/07/21 05:46:18;;;;;;;;;;;;;;;;;;5026113;28;1212;-53
2021/07/21 05:48:43;;;;;;;;;;;;;;;;;;5022431;28;1597;-52
2021/07/21 05:51:08;;;;;;;;;;;;;;;;;;5025212;28;995;-53
2021/07/21 05:53:33;;;;;;;;;;;;;;;;;;5023056;28;1910;-53
2021/07/21 05:55:58;;;;;;;;;;;;;;;;;;5027339;28;1605;-53
2021/07/21 05:58:23;;;;;;;;;;;;;;;;;;5023171;28;1433;-51
2021/07/21 06:00:49;;;;;;;;;;;;;;;;;;5025893;28;1093;-52
2021/07/21 06:03:18;;;;;;;;;;;;;;;;;;5021178;28;1394;-53
2021/07/21 06:05:43;;;;;;;;;;;;;;;;;;5026875;28;2020;-51
2021/07/21 06:08:08;;;;;;;;;;;;;;;;;;5023206;28;1504;-51
2021/07/21 06:10:33;;;;;;;;;;;;;;;;;;5025532;28;1562;-52
2021/07/21 06:12:59;;;;;;;;;;;;;;;;;;5022278;28;1898;-51
2021/07/21 06:15:27;;;;;;;;;;;;;;;;;;5026654;28;1259;-52
2021/07/21 06:17:53;;;;;;;;;;;;;;;;;;5023151;28;1601;-53
2021/07/21 06:20:18;;;;;;;;;;;;;;;;;;5025372;28;1516;-52
2021/07/21 06:22:43;;;;;;;;;;;;;;;;;;5022884;28;1062;-53
2021/07/21 06:25:09;;;;;;;;;;;;;;;;;;5021988;28;1632;-51
2021/07/21 06:27:34;;;;;;;;;;;;;;;;;;5024611;28;1383;-52
2021/07/21 06:29:59;;;;;;;;;;;;;;;;;;5025387;28;1134;-51
2021/07/21 06:32:24;;;;;;;;;;;;;;;;;;5018555;28;1982;-53
2021/07/21 06:34:49;;;;;;;;;;;;;;;;;;5025905;28;1079;-51
2021/07/21 06:37:15;;;;;;;;;;;;;;;;;;5021189;28;1252;-52
2021/07/21 06:39:40;;;;;;;;;;;;;;;;;;5025541;28;1608;-50
2021/07/21 06:42:05;;;;;;;;;;;;;;;;;;5021652;28;1145;-52
2021/07/21 06:44:30;;;;;;;;;;;;;;;;;;5021855;28;1386;-50
2021/07/21 06:46:55;;;;;;;;;;;;;;;;;;5025186;28;1363;-51
2021/07/21 06:49:21;;;;;;;;;;;;;;;;;;5022438;28;1564;-53
2021/07/21 06:51:46;;;;;;;;;;;;;;;;;;5023870;28;1168;-50
2021/07/21 06:54:11;;;;;;;;;;;;;;;;;;5021159;28;1914;-53
2021/07/21 06:56:36;;;;;;;;;;;;;;;;;;5025576;28;1549;-51
2021/07/21 06:59:01;;;;;;;;;;;;;;;;;;5020459;28;1189;-51
2021/07/21 07:01:26;;;;;;;;;;;;;;;;;;5021940;28;1264;-51
2021/07/21 07:03:52;;;;;;;;;;;;;;;;;;5024816;28;1514;-51
2021/07/21 07:06:17;;;;;;;;;;;;;;;;;;5021667;28;1617;-53
2021/07/21 07:08:42;;;;;;;;;;;;;;;;;;5022487;28;1414;-51
2021/07/21 07:11:09;;;;;;;;;;;;;;;;;;5024418;28;1470;-52
2021/07/21 07:13:34;;;;;;;;;;;;;;;;;;5023707;28;1957;-51
2021/07/21 07:16:00;;;;;;;;;;;;;;;;;;5022636;28;1177;-53
2021/07/21 07:18:26;;;;;;;;;;;;;;;;;;5020772;28;1593;-53
2021/07/21 07:20:52;;;;;;;;;;;;;;;;;;5023389;28;1204;-53
2021/07/21 07:23:17;;;;;;;;;;;;;;;;;;5023067;28;1221;-53
2021/07/21 07:25:43;;;;;;;;;;;;;;;;;;5021378;28;1649;-53
2021/07/21 07:28:08;;;;;;;;;;;;;;;;;;5026418;28;1533;-53
2021/07/21 07:30:33;;;;;;;;;;;;;;;;;;5020392;28;1794;-52
2021/07/21 07:32:58;;;;;;;;;;;;;;;;;;5020325;28;1980;-52
2021/07/21 07:35:23;;;;;;;;;;;;;;;;;;5023945;28;1038;-52
2021/07/21 07:37:48;;;;;;;;;;;;;;;;;;5023647;28;1704;-53
2021/07/21 07:40:14;;;;;;;;;;;;;;;;;;5024792;28;1601;-53
2021/07/21 07:42:39;;;;;;;;;;;;;;;;;;5021891;28;1240;-52
2021/07/21 07:45:04;;;;;;;;;;;;;;;;;;5024240;28;1369;-53
2021/07/21 07:47:31;;;;;;;;;;;;;;;;;;5021146;28;1713;-52
2021/07/21 07:49:57;;;;;;;;;;;;;;;;;;5020774;28;1502;-50
2021/07/21 07:52:22;;;;;;;;;;;;;;;;;;5024642;28;1906;-50
2021/07/21 07:54:47;;;;;;;;;;;;;;;;;;5020283;28;1506;-51
2021/07/21 07:57:12;;;;;;;;;;;;;;;;;;5023177;28;1387;-50
2021/07/21 07:59:38;;;;;;;;;;;;;;;;;;5021898;28;1866;-52
2021/07/21 08:02:03;;;;;;;;;;;;;;;;;;5025154;28;1516;-50
2021/07/21 08:04:28;;;;;;;;;;;;;;;;;;5020920;28;1180;-52
2021/07/21 08:06:53;;;;;;;;;;;;;;;;;;5023111;28;1781;-53
2021/07/21 08:09:19;;;;;;;;;;;;;;;;;;5021523;28;1169;-53
2021/07/21 08:11:45;;;;;;;;;;;;;;;;;;5022731;28;1585;-53
2021/07/21 08:14:11;;;;;;;;;;;;;;;;;;5024808;28;1926;-52
2021/07/21 08:16:36;;;;;;;;;;;;;;;;;;5023494;28;1367;-52
2021/07/21 08:19:01;;;;;;;;;;;;;;;;;;5020441;28;1601;-53
2021/07/21 08:21:27;;;;;;;;;;;;;;;;;;5022084;28;1287;-51
2021/07/21 08:23:52;;;;;;;;;;;;;;;;;;5020288;28;1278;-53
2021/07/21 08:26:17;;;;;;;;;;;;;;;;;;5023212;28;1561;-51
2021/07/21 08:28:42;;;;;;;;;;;;;;;;;;5022100;28;1276;-52
2021/07/21 08:31:07;;;;;;;;;;;;;;;;;;5020867;28;1387;-51
2021/07/21 08:33:33;;;;;;;;;;;;;;;;;;5021587;28;1967;-52
2021/07/21 08:35:58;;;;;;;;;;;;;;;;;;5022534;28;1602;-50
2021/07/21 08:38:23;;;;;;;;;;;;;;;;;;5021249;28;1339;-53
2021/07/21 08:40:48;;;;;;;;;;;;;;;;;;5020448;28;1569;-50
2021/07/21 08:43:14;;;;;;;;;;;;;;;;;;5022177;28;1050;-51
2021/07/21 08:45:39;;;;;;;;;;;;;;;;;;5022527;28;1652;-51
2021/07/21 08:48:05;;;;;;;;;;;;;;;;;;5011369;28;1234;-52
2021/07/21 08:50:30;;;;;;;;;;;;;;;;;;5019667;28;1413;-53
2021/07/21 08:52:56;;;;;;;;;;;;;;;;;;5020905;28;1898;-53
2021/07/21 08:55:22;;;;;;;;;;;;;;;;;;5009416;28;1571;-53
2021/07/21 08:57:47;;;;;;;;;;;;;;;;;;5024190;28;1403;-51
2021/07/21 09:00:14;;;;;;;;;;;;;;;;;;5021449;28;1524;-53
2021/07/21 09:02:39;;;;;;;;;;;;;;;;;;5023905;28;1597;-50
2021/07/21 09:05:05;;;;;;;;;;;;;;;;;;5023343;28;1422;-51
2021/07/21 09:07:30;;;;;;;;;;;;;;;;;;5027410;28;1280;-52
2021/07/21 09:09:56;;;;;;;;;;;;;;;;;;5013955;28;1610;-53
2021/07/21 09:12:21;;;;;;;;;;;;;;;;;;5026356;28;1926;-52
2021/07/21 09:14:46;;;;;;;;;;;;;;;;;;5022972;28;1018;-52
2021/07/21 09:17:12;;;;;;;;;;;;;;;;;;5027123;28;1705;-53
2021/07/21 09:19:38;;;;;;;;;;;;;;;;;;5023888;28;1546;-52
2021/07/21 09:22:20;;;;;;;;;;;;;;;;;;5024780;28;1322;-53
2021/07/21 09:24:45;;;;;;;;;;;;;;;;;;5024390;28;1581;-52
2021/07/21 09:27:11;;;;;;;;;;;;;;;;;;5027280;28;1303;-53
2021/07/21 09:29:37;;;;;;;;;;;;;;;;;;5025717;28;1098;-51
2021/07/21 09:32:02;;;;;;;;;;;;;;;;;;5024154;28;1965;-52
2021/07/21 09:34:29;;;;;;;;;;;;;;;;;;5027197;28;1664;-51
2021/07/21 09:37:01;;;;;;;;;;;;;;;;;;5025806;28;1469;-52
2021/07/21 09:39:30;;;;;;;;;;;;;;;;;;5023045;28;1581;-51
2021/07/21 09:41:55;;;;;;;;;;;;;;;;;;5026282;28;1537;-52
2021/07/21 09:44:33;;;;;;;;;;;;;;;;;;5022254;28;1129;-53
2021/07/21 09:47:14;;;;;;;;;;;;;;;;;;5026284;28;1641;-51
2021/07/21 09:49:39;;;;;;;;;;;;;;;;;;5025779;28;1248;-53
2021/07/21 09:52:18;;;;;;;;;;;;;;;;;;5024310;28;1902;-51
2021/07/21 09:55:01;;;;;;;;;;;;;;;;;;5024262;28;1582;-51
2021/07/21 09:57:26;;;;;;;;;;;;;;;;;;5012544;28;1490;-50
2021/07/21 09:59:51;;;;;;;;;;;;;;;;;;5013564;28;1193;-51
2021/07/21 10:02:17;;;;;;;;;;;;;;;;;;5023469;28;1331;-50
2021/07/21 10:04:45;;;;;;;;;;;;;;;;;;5025208;28;1577;-51
2021/07/21 10:09:54;;;;;;;;;;;;;;;;;;5013565;28;1656;-51
2021/07/21 10:12:19;;;;;;;;;;;;;;;;;;5022185;28;1957;-52
2021/07/21 10:14:55;;;;;;;;;;;;;;;;;;5014456;28;1522;-51
2021/07/21 10:17:20;;;;;;;;;;;;;;;;;;5020471;28;1505;-51
2021/07/21 10:19:45;;;;;;;;;;;;;;;;;;5028992;28;1616;-51
2021/07/21 10:22:10;;;;;;;;;;;;;;;;;;5011391;28;1149;-51
2021/07/21 10:24:35;;;;;;;;;;;;;;;;;;5024168;28;1549;-51
2021/07/21 10:27:01;;;;;;;;;;;;;;;;;;5022831;28;1208;-52
2021/07/21 10:29:26;;;;;;;;;;;;;;;;;;5021790;28;1239;-53
2021/07/21 10:31:51;;;;;;;;;;;;;;;;;;5022163;28;1684;-52
2021/07/21 10:34:17;;;;;;;;;;;;;;;;;;5024629;28;1901;-53
2021/07/21 10:36:42;;;;;;;;;;;;;;;;;;5021197;28;1260;-53
2021/07/21 10:39:08;;;;;;;;;;;;;;;;;;5020931;28;1177;-52
2021/07/21 10:41:33;;;;;;;;;;;;;;;;;;5021771;28;1921;-51
2021/07/21 10:43:59;;;;;;;;;;;;;;;;;;5007282;28;1599;-51
2021/07/21 10:46:34;;;;;;;;;;;;;;;;;;5025662;28;1538;-52
2021/07/21 11:00:10;;;;;;;;;;;;;;;;;;5026496;28;967;-51
2021/07/21 11:02:35;;;;;;;;;;;;;;;;;;5020268;28;1370;-52
2021/07/21 11:05:00;;;;;;;;;;;;;;;;;;5025371;28;1589;-53
2021/07/21 11:07:44;;;;;;;;;;;;;;;;;;5010086;28;1469;-52
2021/07/21 11:10:09;;;;;;;;;;;;;;;;;;5025366;28;1551;-51
2021/07/21 11:12:35;;;;;;;;;;;;;;;;;;5021553;28;1907;-51
2021/07/21 11:15:00;;;;;;;;;;;;;;;;;;5011894;28;1478;-51
2021/07/21 11:17:25;;;;;;;;;;;;;;;;;;5022763;28;1390;-52
2021/07/21 11:19:50;;;;;;;;;;;;;;;;;;5009748;28;1583;-51
2021/07/21 11:22:19;;;;;;;;;;;;;;;;;;5024013;28;1417;-52
2021/07/21 11:25:02;;;;;;;;;;;;;;;;;;5020989;28;1564;-53
2021/07/21 11:27:37;;;;;;;;;;;;;;;;;;5023545;28;1461;-51
2021/07/21 11:30:03;;;;;;;;;;;;;;;;;;5020435;28;1198;-51
2021/07/21 11:32:29;;;;;;;;;;;;;;;;;;5023720;28;1969;-50
2021/07/21 11:34:55;;;;;;;;;;;;;;;;;;5023250;28;1061;-51
2021/07/21 11:37:27;;;;;;;;;;;;;;;;;;5023555;28;1359;-53
2021/07/21 11:39:56;;;;;;;;;;;;;;;;;;5024159;28;1613;-53
2021/07/21 11:42:34;;;;;;;;;;;;;;;;;;5021892;28;1826;-50
2021/07/21 11:45:03;;;;;;;;;;;;;;;;;;5024487;28;1043;-50
2021/07/21 11:47:29;;;;;;;;;;;;;;;;;;5019458;28;1283;-52
2021/07/21 11:49:54;;;;;;;;;;;;;;;;;;5026026;28;1636;-52
2021/07/21 11:52:20;;;;;;;;;;;;;;;;;;5019605;28;1903;-52
2021/07/21 11:54:45;;;;;;;;;;;;;;;;;;5024345;28;1574;-52
2021/07/21 11:57:10;;;;;;;;;;;;;;;;;;5020027;28;1272;-52
2021/07/21 11:59:36;;;;;;;;;;;;;;;;;;5020541;28;1512;-53
2021/07/21 12:02:04;;;;;;;;;;;;;;;;;;5023771;28;1573;-51
2021/07/21 12:04:29;;;;;;;;;;;;;;;;;;5022933;28;1170;-52
2021/07/21 12:09:28;;;;;;;;;;;;;;;;;;5014231;28;1516;-88
2021/07/21 12:11:57;;;;;;;;;;;;;;;;;;5018751;28;1561;-87
2021/07/21 12:14:23;;;;;;;;;;;;;;;;;;4998577;28;1914;-88
2021/07/21 12:16:48;;;;;;;;;;;;;;;;;;4981643;28;1802;-88
2021/07/21 12:19:13;;;;;;;;;;;;;;;;;;5014410;28;1144;-87
2021/07/21 12:21:39;;;;;;;;;;;;;;;;;;4979086;28;1540;-89
2021/07/21 12:24:04;;;;;;;;;;;;;;;;;;5017430;28;800;-89
2021/07/21 12:26:39;;;;;;;;;;;;;;;;;;4996849;28;1535;-89
2021/07/21 12:29:04;;;;;;;;;;;;;;;;;;5000549;28;1221;-89
2021/07/21 12:31:31;;;;;;;;;;;;;;;;;;5014572;28;1858;-88
2021/07/21 12:34:15;;;;;;;;;;;;;;;;;;5025853;28;1914;-92
2021/07/21 12:36:41;;;;;;;;;;;;;;;;;;5035385;28;873;-92
2021/07/21 12:39:06;;;;;;;;;;;;;;;;;;5038042;28;1092;-91
2021/07/21 12:41:32;;;;;;;;;;;;;;;;;;5036483;28;1289;-91
2021/07/21 12:43:57;;;;;;;;;;;;;;;;;;5033314;28;1553;-89
2021/07/21 12:46:23;;;;;;;;;;;;;;;;;;5018338;28;891;-89
2021/07/21 12:48:48;;;;;;;;;;;;;;;;;;5018066;28;844;-89
2021/07/21 12:51:16;;;;;;;;;;;;;;;;;;5010650;28;1454;-89
2021/07/21 12:53:42;;;;;;;;;;;;;;;;;;5018532;28;1950;-90
2021/07/21 12:56:07;;;;;;;;;;;;;;;;;;5009692;28;1241;-88
2021/07/21 12:58:33;;;;;;;;;;;;;;;;;;5011931;28;1972;-91
2021/07/21 13:00:58;;;;;;;;;;;;;;;;;;5000360;28;1256;-90
2021/07/21 13:03:23;;;;;;;;;;;;;;;;;;5017871;28;1263;-88
2021/07/21 13:05:48;;;;;;;;;;;;;;;;;;5000340;28;737;-88
2021/07/21 13:08:20;;;;;;;;;;;;;;;;;;5017698;28;867;-88
2021/07/21 13:10:46;;;;;;;;;;;;;;;;;;5017817;28;1265;-92
2021/07/21 13:13:20;;;;;;;;;;;;;;;;;;5000023;28;1902;-88
2021/07/21 13:15:45;;;;;;;;;;;;;;;;;;5000304;28;1296;-89
2021/07/21 13:18:11;;;;;;;;;;;;;;;;;;4999269;28;1413;-89
2021/07/21 13:20:46;;;;;;;;;;;;;;;;;;5000133;28;1292;-89
2021/07/21 13:23:16;;;;;;;;;;;;;;;;;;5004273;28;1116;-89
2021/07/21 13:25:41;;;;;;;;;;;;;;;;;;5017465;28;938;-89
2021/07/21 13:28:25;;;;;;;;;;;;;;;;;;4988399;28;1234;-89
2021/07/21 13:30:51;;;;;;;;;;;;;;;;;;5017322;28;1307;-88
2021/07/21 13:33:16;;;;;;;;;;;;;;;;;;4999797;28;1902;-89
2021/07/21 13:35:42;;;;;;;;;;;;;;;;;;4999612;28;1482;-92
2021/07/21 13:38:07;;;;;;;;;;;;;;;;;;4998341;28;1193;-91
2021/07/21 13:40:32;;;;;;;;;;;;;;;;;;5021055;28;1614;-92
2021/07/21 13:43:04;;;;;;;;;;;;;;;;;;5004448;28;1542;-89
2021/07/21 13:45:30;;;;;;;;;;;;;;;;;;5021377;28;1178;-89
2021/07/21 13:48:01;;;;;;;;;;;;;;;;;;5003718;28;1591;-90
2021/07/21 13:50:26;;;;;;;;;;;;;;;;;;5030265;28;1286;-89
2021/07/21 13:53:01;;;;;;;;;;;;;;;;;;5021029;28;2292;-89
2021/07/21 13:55:26;;;;;;;;;;;;;;;;;;5020583;28;1566;-89
2021/07/21 13:57:51;;;;;;;;;;;;;;;;;;5021835;28;1362;-89
2021/07/21 14:00:17;;;;;;;;;;;;;;;;;;5021357;28;1386;-89
2021/07/21 14:02:42;;;;;;;;;;;;;;;;;;5021386;28;1303;-90
2021/07/21 14:05:07;;;;;;;;;;;;;;;;;;5019072;28;1540;-89
2021/07/21 14:07:32;;;;;;;;;;;;;;;;;;5019020;28;1512;-92
2021/07/21 14:09:58;;;;;;;;;;;;;;;;;;5019185;28;1575;-89
2021/07/21 14:12:23;;;;;;;;;;;;;;;;;;5004604;28;1981;-91
2021/07/21 14:14:48;;;;;;;;;;;;;;;;;;5025222;28;1519;-89
2021/07/21 14:17:14;;;;;;;;;;;;;;;;;;5032605;28;1873;-92
2021/07/21 14:19:39;;;;;;;;;;;;;;;;;;5047440;28;1256;-91
2021/07/21 14:22:04;;;;;;;;;;;;;;;;;;5018876;28;1627;-90
2021/07/21 14:24:29;;;;;;;;;;;;;;;;;;5022017;28;1599;-91
2021/07/21 14:26:54;;;;;;;;;;;;;;;;;;5002930;28;1564;-90
2021/07/21 14:29:20;;;;;;;;;;;;;;;;;;5023267;28;1288;-89
2021/07/21 14:31:45;;;;;;;;;;;;;;;;;;5003014;28;1444;-89
2021/07/21 14:34:14;;;;;;;;;;;;;;;;;;5002741;28;1898;-90
2021/07/21 14:36:41;;;;;;;;;;;;;;;;;;5017784;28;1563;-89
2021/07/21 14:39:07;;;;;;;;;;;;;;;;;;5020987;28;1008;-89
2021/07/21 14:41:32;;;;;;;;;;;;;;;;;;5020196;28;1536;-90
2021/07/21 14:43:57;;;;;;;;;;;;;;;;;;5020923;28;1197;-92
2021/07/21 14:46:22;;;;;;;;;;;;;;;;;;5005071;28;1178;-90
2021/07/21 14:48:48;;;;;;;;;;;;;;;;;;5001129;28;1461;-88
2021/07/21 14:51:13;;;;;;;;;;;;;;;;;;5003056;28;1636;-89
2021/07/21 14:53:38;;;;;;;;;;;;;;;;;;5019658;28;1960;-89
2021/07/21 14:56:04;;;;;;;;;;;;;;;;;;5020851;28;1582;-89
2021/07/21 14:58:29;;;;;;;;;;;;;;;;;;5021396;28;1165;-89
2021/07/21 15:00:55;;;;;;;;;;;;;;;;;;5017867;28;1577;-89
2021/07/21 15:03:20;;;;;;;;;;;;;;;;;;5017285;28;1527;-89
2021/07/21 15:05:45;;;;;;;;;;;;;;;;;;5003347;28;1115;-90
2021/07/21 15:08:11;;;;;;;;;;;;;;;;;;5018992;28;1734;-88
2021/07/21 15:10:37;;;;;;;;;;;;;;;;;;5019233;28;1554;-89
2021/07/21 15:13:02;;;;;;;;;;;;;;;;;;5017905;28;1910;-92
2021/07/21 15:15:27;;;;;;;;;;;;;;;;;;5018514;28;1335;-89
2021/07/21 15:17:53;;;;;;;;;;;;;;;;;;5021943;28;1006;-90
2021/07/21 15:20:18;;;;;;;;;;;;;;;;;;5013553;28;1543;-88
2021/07/21 15:22:43;;;;;;;;;;;;;;;;;;5013618;28;1351;-90
2021/07/21 15:25:09;;;;;;;;;;;;;;;;;;4998256;28;1540;-89
2021/07/21 15:27:34;;;;;;;;;;;;;;;;;;4996946;28;1614;-88
2021/07/21 15:29:59;;;;;;;;;;;;;;;;;;5020059;28;1011;-89
2021/07/21 15:32:24;;;;;;;;;;;;;;;;;;5019448;28;1982;-89
2021/07/21 15:34:50;;;;;;;;;;;;;;;;;;5019379;28;1267;-89
2021/07/21 15:37:15;;;;;;;;;;;;;;;;;;5018559;28;1793;-89
2021/07/21 15:39:40;;;;;;;;;;;;;;;;;;5018251;28;1550;-89
2021/07/21 15:42:06;;;;;;;;;;;;;;;;;;5020949;28;1297;-89
2021/07/21 15:44:31;;;;;;;;;;;;;;;;;;5000593;28;1383;-90
2021/07/21 15:46:56;;;;;;;;;;;;;;;;;;5003847;28;1078;-90
2021/07/21 15:49:22;;;;;;;;;;;;;;;;;;5017151;28;1543;-89
2021/07/21 15:51:47;;;;;;;;;;;;;;;;;;5004317;28;1262;-90
2021/07/21 15:54:12;;;;;;;;;;;;;;;;;;5019046;28;1883;-89
2021/07/21 15:56:40;;;;;;;;;;;;;;;;;;5016065;28;1542;-89
2021/07/21 15:59:05;;;;;;;;;;;;;;;;;;4999954;28;1308;-90
2021/07/21 16:01:31;;;;;;;;;;;;;;;;;;5015112;28;1531;-91
2021/07/21 16:03:56;;;;;;;;;;;;;;;;;;5014980;28;1499;-89
2021/07/21 16:06:22;;;;;;;;;;;;;;;;;;5016084;28;1350;-91
2021/07/21 16:08:47;;;;;;;;;;;;;;;;;;5012405;28;1626;-91
2021/07/21 16:11:12;;;;;;;;;;;;;;;;;;5014704;28;1540;-90
2021/07/21 16:13:37;;;;;;;;;;;;;;;;;;4994809;28;1946;-89
2021/07/21 16:16:04;;;;;;;;;;;;;;;;;;5018553;28;1181;-88
2021/07/21 16:18:30;;;;;;;;;;;;;;;;;;5001484;28;1619;-90
2021/07/21 16:20:55;;;;;;;;;;;;;;;;;;5021403;28;1347;-89
2021/07/21 16:23:20;;;;;;;;;;;;;;;;;;5017557;28;1391;-89
2021/07/21 16:25:46;;;;;;;;;;;;;;;;;;5000938;28;1608;-90
2021/07/21 16:28:11;;;;;;;;;;;;;;;;;;5002056;28;1472;-90
2021/07/21 16:30:36;;;;;;;;;;;;;;;;;;5021538;28;1289;-89
2021/07/21 16:33:01;;;;;;;;;;;;;;;;;;5017968;28;1977;-90
2021/07/21 16:35:27;;;;;;;;;;;;;;;;;;5017337;28;1630;-89
2021/07/21 16:37:52;;;;;;;;;;;;;;;;;;5001688;28;1344;-89
2021/07/21 16:40:17;;;;;;;;;;;;;;;;;;5001185;28;1561;-89
2021/07/21 16:42:42;;;;;;;;;;;;;;;;;;4999858;28;1419;-90
2021/07/21 16:45:08;;;;;;;;;;;;;;;;;;5022475;28;1343;-89
2021/07/21 16:47:34;;;;;;;;;;;;;;;;;;5018467;28;1186;-89
2021/07/21 16:49:59;;;;;;;;;;;;;;;;;;5017335;28;1587;-89
2021/07/21 16:52:24;;;;;;;;;;;;;;;;;;5019723;28;1914;-89
2021/07/21 16:54:50;;;;;;;;;;;;;;;;;;5016535;28;1630;-89
2021/07/21 16:57:16;;;;;;;;;;;;;;;;;;5016575;28;1406;-89
2021/07/21 16:59:42;;;;;;;;;;;;;;;;;;5019387;28;1099;-89
2021/07/21 17:02:07;;;;;;;;;;;;;;;;;;5018529;28;1378;-90
2021/07/21 17:04:32;;;;;;;;;;;;;;;;;;5017772;28;1546;-89
2021/07/21 17:06:57;;;;;;;;;;;;;;;;;;5018417;28;969;-91
2021/07/21 17:09:22;;;;;;;;;;;;;;;;;;5019588;28;1110;-89
2021/07/21 17:11:48;;;;;;;;;;;;;;;;;;5019914;28;1539;-90
2021/07/21 17:14:13;;;;;;;;;;;;;;;;;;5019310;28;1902;-89
2021/07/21 17:16:38;;;;;;;;;;;;;;;;;;5019333;28;1283;-90
2021/07/21 17:19:03;;;;;;;;;;;;;;;;;;5015223;28;1587;-89